Time;durP1;ratioP1;P1;durP2;ratioP2;P2;SDS_P1;SDS_P2;PMS_P1;PMS_P2;Temp;Humidity;BMP_temperature;BMP_pressure;BME280_temperature;BME280_humidity;BME280_pressure;Samples;Min_cycle;Max_cycle;Signal;HPM_P1;HPM_P2
2023/06/02 00:00:07;;;;;;;6.83;2.07;;;;;;;;;;4998042;28;20213;-79
2023/06/02 00:03:14;;;;;;;3.20;2.23;;;;;;;;;;4997868;28;20182;-79
2023/06/02 00:06:18;;;;;;;4.93;2.70;;;;;;;;;;4998118;28;20182;-79
2023/06/02 00:09:22;;;;;;;4.07;2.40;;;;;;;;;;5009527;28;20218;-79
2023/06/02 00:12:26;;;;;;;2.47;2.27;;;;;;;;;;4998296;28;20186;-79
2023/06/02 00:15:31;;;;;;;2.93;2.60;;;;;;;;;;4998993;28;20178;-79
2023/06/02 00:18:39;;;;;;;4.00;2.77;;;;;;;;;;4986475;28;20218;-79
2023/06/02 00:21:45;;;;;;;6.27;2.70;;;;;;;;;;4986805;28;20618;-79
2023/06/02 00:24:49;;;;;;;4.43;2.50;;;;;;;;;;4998060;28;20182;-79
2023/06/02 00:27:54;;;;;;;4.47;2.70;;;;;;;;;;4997714;28;20190;-79
2023/06/02 00:30:58;;;;;;;5.30;2.77;;;;;;;;;;5009028;28;20510;-79
2023/06/02 00:34:02;;;;;;;5.60;2.93;;;;;;;;;;4998011;28;20517;-79
2023/06/02 00:37:06;;;;;;;3.50;2.70;;;;;;;;;;4997162;28;20198;-79
2023/06/02 00:40:11;;;;;;;5.37;3.00;;;;;;;;;;4985730;28;20221;-79
2023/06/02 00:43:15;;;;;;;3.03;2.43;;;;;;;;;;4998111;28;20174;-79
2023/06/02 00:46:20;;;;;;;4.97;3.03;;;;;;;;;;4998088;28;20178;-79
2023/06/02 00:49:24;;;;;;;5.50;3.00;;;;;;;;;;4986150;28;20566;-79
2023/06/02 00:52:30;;;;;;;3.80;2.70;;;;;;;;;;4986088;28;20178;-79
2023/06/02 00:55:35;;;;;;;3.13;2.83;;;;;;;;;;4986163;28;20197;-79
2023/06/02 03:44:44;;;;;;;5.63;3.20;;;;;;;;;;4896940;29;20209;-84
2023/06/02 03:59:31;;;;;;;4.87;3.60;;;;;;;;;;4796620;29;20208;-84
2023/06/02 04:14:00;;;;;;;10.67;4.40;;;;;;;;;;4770406;30;20202;-83
2023/06/02 04:19:08;;;;;;;;;;;;;;;;;;;;;
2023/06/02 04:33:49;;;;;;;;;;;;;;;;;;;;;
2023/06/02 04:38:42;;;;;;;8.40;4.23;;;;;;;;;;4927969;29;20181;-84
2023/06/02 04:53:54;;;;;;;5.90;4.13;;;;;;;;;;4827775;29;20220;-84
2023/06/02 05:02:18;;;;;;;6.00;4.67;;;;;;;;;;4903369;29;20202;-84
2023/06/02 05:05:27;;;;;;;9.67;5.97;;;;;;;;;;4901862;29;20178;-88
2023/06/02 05:13:35;;;;;;;10.13;5.73;;;;;;;;;;4899118;29;20186;-88
2023/06/02 05:16:48;;;;;;;10.00;5.07;;;;;;;;;;4899674;29;20209;-88
2023/06/02 05:19:58;;;;;;;10.00;5.90;;;;;;;;;;4899904;29;20221;-88
2023/06/02 05:23:19;;;;;;;8.07;5.37;;;;;;;;;;4909890;29;20185;-88
2023/06/02 05:26:24;;;;;;;7.27;5.37;;;;;;;;;;4899133;29;20190;-89
2023/06/02 05:29:28;;;;;;;9.13;5.23;;;;;;;;;;4910573;29;20232;-88
2023/06/02 05:32:32;;;;;;;7.27;4.90;;;;;;;;;;4910998;29;20181;-89
2023/06/02 05:35:38;;;;;;;6.03;4.73;;;;;;;;;;4899705;29;20182;-88
2023/06/02 05:38:43;;;;;;;8.27;5.70;;;;;;;;;;4900053;29;20221;-88
2023/06/02 05:41:47;;;;;;;7.73;5.57;;;;;;;;;;4899896;29;20185;-88
2023/06/02 05:44:51;;;;;;;10.37;5.30;;;;;;;;;;4888827;29;20181;-89
2023/06/02 05:47:56;;;;;;;15.87;5.30;;;;;;;;;;4899749;29;20190;-89
2023/06/02 05:51:01;;;;;;;7.67;5.80;;;;;;;;;;4910248;29;20205;-88
2023/06/02 05:54:06;;;;;;;7.97;5.57;;;;;;;;;;4899757;29;20189;-88
2023/06/02 05:57:11;;;;;;;8.10;5.70;;;;;;;;;;4909982;29;20186;-89
2023/06/02 06:00:16;;;;;;;7.43;5.80;;;;;;;;;;4911408;29;20229;-89
2023/06/02 06:03:20;;;;;;;11.17;6.57;;;;;;;;;;4899186;29;20181;-88
2023/06/02 06:06:24;;;;;;;19.67;6.67;;;;;;;;;;4909980;29;20185;-88
2023/06/02 06:09:29;;;;;;;16.17;6.50;;;;;;;;;;4909831;29;20217;-89
2023/06/02 06:12:33;;;;;;;10.67;6.23;;;;;;;;;;4888218;29;20177;-89
2023/06/02 06:15:37;;;;;;;9.43;6.00;;;;;;;;;;4887716;29;20209;-89
2023/06/02 06:18:41;;;;;;;9.13;5.90;;;;;;;;;;4888189;29;20562;-89
2023/06/02 06:21:45;;;;;;;10.73;6.90;;;;;;;;;;4898818;29;20186;-88
2023/06/02 06:24:50;;;;;;;10.17;6.33;;;;;;;;;;4888043;29;20531;-89
2023/06/02 06:27:55;;;;;;;11.90;6.50;;;;;;;;;;4887977;29;20186;-89
2023/06/02 06:31:00;;;;;;;13.23;6.27;;;;;;;;;;4888296;29;20225;-89
2023/06/02 06:34:36;;;;;;;15.93;8.20;;;;;;;;;;4899019;29;20197;-89
2023/06/02 06:38:11;;;;;;;11.67;6.53;;;;;;;;;;4898063;29;20181;-88
2023/06/02 06:41:51;;;;;;;10.27;6.83;;;;;;;;;;4898479;29;20205;-89
2023/06/02 06:45:20;;;;;;;10.07;6.47;;;;;;;;;;4898370;29;20245;-89
2023/06/02 06:48:29;;;;;;;8.47;6.23;;;;;;;;;;4898311;29;20641;-89
2023/06/02 06:51:33;;;;;;;10.13;6.87;;;;;;;;;;4898130;29;20213;-88
2023/06/02 06:55:27;;;;;;;12.33;7.10;;;;;;;;;;4887597;29;20522;-88
2023/06/02 06:58:36;;;;;;;11.83;7.00;;;;;;;;;;4887356;29;20177;-89
2023/06/02 07:02:17;;;;;;;40.13;7.80;;;;;;;;;;4897910;29;20177;-88
2023/06/02 07:05:25;;;;;;;9.83;6.47;;;;;;;;;;4898076;29;20550;-89
2023/06/02 07:08:30;;;;;;;11.60;7.20;;;;;;;;;;4887079;29;20185;-89
2023/06/02 07:11:39;;;;;;;11.07;7.20;;;;;;;;;;4898020;29;20680;-89
2023/06/02 07:14:55;;;;;;;13.13;6.43;;;;;;;;;;4895757;29;20190;-89
2023/06/02 07:18:00;;;;;;;12.67;6.57;;;;;;;;;;4879178;29;20186;-90
2023/06/02 07:21:32;;;;;;;8.53;6.47;;;;;;;;;;4879533;29;20182;-89
2023/06/02 07:24:42;;;;;;;12.13;6.60;;;;;;;;;;4887117;29;20185;-89
2023/06/02 07:27:47;;;;;;;8.63;6.67;;;;;;;;;;4876395;29;20202;-88
2023/06/02 07:30:55;;;;;;;11.57;6.70;;;;;;;;;;4908366;29;20221;-88
2023/06/02 07:33:59;;;;;;;11.80;6.53;;;;;;;;;;4908581;29;20645;-90
2023/06/02 07:37:08;;;;;;;29.93;8.40;;;;;;;;;;4897902;29;20181;-89
2023/06/02 07:40:14;;;;;;;10.40;6.17;;;;;;;;;;4886843;29;20236;-89
2023/06/02 07:43:21;;;;;;;11.00;7.10;;;;;;;;;;4897663;29;20186;-89
2023/06/02 07:46:43;;;;;;;13.10;7.10;;;;;;;;;;4900509;29;20206;-89
2023/06/02 07:49:51;;;;;;;10.30;7.43;;;;;;;;;;4879450;29;20222;-89
2023/06/02 07:52:59;;;;;;;8.53;6.67;;;;;;;;;;4893454;29;20216;-88
2023/06/02 07:56:05;;;;;;;11.67;6.80;;;;;;;;;;4871819;29;20192;-89
2023/06/02 07:59:12;;;;;;;21.10;7.47;;;;;;;;;;4893118;29;20223;-89
2023/06/02 08:02:21;;;;;;;19.20;7.60;;;;;;;;;;4871505;29;20177;-89
2023/06/02 08:05:25;;;;;;;8.23;6.23;;;;;;;;;;4883337;29;20179;-85
2023/06/02 08:08:30;;;;;;;8.83;6.00;;;;;;;;;;4885465;29;20200;-84
2023/06/02 08:11:35;;;;;;;13.13;6.97;;;;;;;;;;4895751;29;20220;-83
2023/06/02 08:14:39;;;;;;;10.27;6.70;;;;;;;;;;4896740;29;20661;-83
2023/06/02 08:17:43;;;;;;;10.65;6.00;;;;;;;;;;4904107;29;20193;-83
2023/06/02 08:20:47;;;;;;;10.65;6.50;;;;;;;;;;4914755;29;20188;-83
2023/06/02 08:23:51;;;;;;;8.27;6.50;;;;;;;;;;4917693;29;20186;-81
2023/06/02 08:26:55;;;;;;;8.18;5.88;;;;;;;;;;4902357;29;20187;-81
2023/06/02 08:29:59;;;;;;;7.95;5.60;;;;;;;;;;4913439;29;20228;-80
2023/06/02 08:33:08;;;;;;;10.38;6.00;;;;;;;;;;4893043;29;20211;-81
2023/06/02 08:36:13;;;;;;;9.30;6.55;;;;;;;;;;4903110;29;20209;-81
2023/06/02 08:39:18;;;;;;;8.32;5.50;;;;;;;;;;4903003;29;20219;-81
2023/06/02 08:42:25;;;;;;;7.80;5.70;;;;;;;;;;4916873;29;20185;-81
2023/06/02 08:45:30;;;;;;;9.07;5.88;;;;;;;;;;4883304;29;20209;-81
2023/06/02 08:48:36;;;;;;;8.40;5.47;;;;;;;;;;4882565;29;20234;-82
2023/06/02 08:51:42;;;;;;;10.13;5.68;;;;;;;;;;4889810;29;20232;-81
2023/06/02 08:54:47;;;;;;;9.25;6.20;;;;;;;;;;4916129;29;20188;-81
2023/06/02 08:57:51;;;;;;;11.70;5.38;;;;;;;;;;4915714;29;20186;-81
2023/06/02 09:00:55;;;;;;;8.20;5.28;;;;;;;;;;4905036;29;20188;-84
2023/06/02 09:04:00;;;;;;;9.60;5.25;;;;;;;;;;4914451;29;20178;-84
2023/06/02 09:07:13;;;;;;;7.50;5.53;;;;;;;;;;4903334;29;20529;-83
2023/06/02 09:10:28;;;;;;;5.88;5.28;;;;;;;;;;4903960;29;20219;-83
2023/06/02 09:13:36;;;;;;;11.75;5.78;;;;;;;;;;4903474;29;20198;-83
2023/06/02 09:16:40;;;;;;;12.73;5.22;;;;;;;;;;4913860;29;20198;-83
2023/06/02 09:19:49;;;;;;;12.30;6.03;;;;;;;;;;4902897;29;20222;-83
2023/06/02 09:22:55;;;;;;;8.82;4.97;;;;;;;;;;4904563;29;20188;-84
2023/06/02 09:25:59;;;;;;;9.80;5.20;;;;;;;;;;4902274;29;20185;-83
2023/06/02 09:29:07;;;;;;;7.18;5.47;;;;;;;;;;4912716;29;20693;-84
2023/06/02 09:32:16;;;;;;;5.75;4.63;;;;;;;;;;4912728;29;20216;-84
2023/06/02 09:35:34;;;;;;;8.63;5.35;;;;;;;;;;4901395;29;20192;-83
2023/06/02 09:38:43;;;;;;;8.45;5.90;;;;;;;;;;4902015;29;20224;-84
2023/06/02 09:41:53;;;;;;;9.93;5.68;;;;;;;;;;4912235;29;20182;-83
2023/06/02 09:45:08;;;;;;;29.35;7.05;;;;;;;;;;4901687;29;20194;-81
2023/06/02 09:48:17;;;;;;;9.35;6.10;;;;;;;;;;4913346;29;20550;-81
2023/06/02 09:51:26;;;;;;;6.93;5.10;;;;;;;;;;4902196;29;20678;-81
2023/06/02 09:54:31;;;;;;;6.22;5.00;;;;;;;;;;4901223;29;20186;-82
2023/06/02 09:57:35;;;;;;;8.18;5.88;;;;;;;;;;4891317;29;20201;-81
2023/06/02 10:00:39;;;;;;;7.43;5.20;;;;;;;;;;4913160;29;20217;-81
2023/06/02 10:03:44;;;;;;;10.63;5.45;;;;;;;;;;4913867;29;20197;-82
2023/06/02 10:07:06;;;;;;;6.63;5.55;;;;;;;;;;4890810;29;20210;-82
2023/06/02 10:10:10;;;;;;;9.15;5.18;;;;;;;;;;4881337;29;20222;-82
2023/06/02 10:13:20;;;;;;;8.57;5.53;;;;;;;;;;4891197;29;20558;-82
2023/06/02 10:16:45;;;;;;;7.47;5.38;;;;;;;;;;4892097;29;20186;-80
2023/06/02 10:20:27;;;;;;;8.73;5.93;;;;;;;;;;4891985;29;20222;-80
2023/06/02 10:23:50;;;;;;;7.93;5.35;;;;;;;;;;4891422;29;20198;-80
2023/06/02 10:27:19;;;;;;;8.88;5.20;;;;;;;;;;4880757;29;20191;-80
2023/06/02 10:30:26;;;;;;;19.63;6.60;;;;;;;;;;4869733;29;20229;-80
2023/06/02 10:33:47;;;;;;;7.97;4.97;;;;;;;;;;4870042;29;20226;-80
2023/06/02 10:37:00;;;;;;;8.13;5.22;;;;;;;;;;4880877;29;20191;-80
2023/06/02 10:40:05;;;;;;;9.93;5.13;;;;;;;;;;4891892;29;20218;-80
2023/06/02 10:43:11;;;;;;;6.28;5.15;;;;;;;;;;4880905;29;20626;-80
2023/06/02 10:46:23;;;;;;;7.28;5.45;;;;;;;;;;4880764;29;20523;-80
2023/06/02 10:49:53;;;;;;;7.93;5.30;;;;;;;;;;4880151;29;20230;-80
2023/06/02 10:53:00;;;;;;;8.00;5.20;;;;;;;;;;4881444;29;20214;-80
2023/06/02 10:56:35;;;;;;;7.60;5.22;;;;;;;;;;4881186;29;20183;-80
2023/06/02 10:59:39;;;;;;;6.80;5.22;;;;;;;;;;4890593;29;20556;-80
2023/06/02 11:02:44;;;;;;;19.65;5.68;;;;;;;;;;4880719;29;20182;-80
2023/06/02 11:05:50;;;;;;;8.80;4.70;;;;;;;;;;4881562;29;20187;-80
2023/06/02 11:09:32;;;;;;;6.22;4.80;;;;;;;;;;4869435;29;20222;-79
2023/06/02 11:12:54;;;;;;;6.85;4.57;;;;;;;;;;4880993;29;20214;-80
2023/06/02 11:15:58;;;;;;;8.70;5.05;;;;;;;;;;4890640;29;20198;-80
2023/06/02 11:19:02;;;;;;;10.15;5.03;;;;;;;;;;4891378;29;20260;-80
2023/06/02 11:22:10;;;;;;;6.85;4.57;;;;;;;;;;4880930;29;20526;-85
2023/06/02 11:25:17;;;;;;;8.20;5.20;;;;;;;;;;4890166;29;20662;-86
2023/06/02 11:28:24;;;;;;;11.40;5.40;;;;;;;;;;4879646;29;20518;-85
2023/06/02 11:31:29;;;;;;;9.52;4.80;;;;;;;;;;4879661;29;20186;-85
2023/06/02 11:34:33;;;;;;;7.68;5.10;;;;;;;;;;4879980;29;20521;-85
2023/06/02 11:37:40;;;;;;;8.52;4.95;;;;;;;;;;4880179;29;20206;-85
2023/06/02 11:40:45;;;;;;;6.43;5.30;;;;;;;;;;4869302;29;20658;-85
2023/06/02 11:43:50;;;;;;;5.50;4.95;;;;;;;;;;4879769;29;20666;-85
2023/06/02 11:46:55;;;;;;;10.65;5.50;;;;;;;;;;4889740;29;20202;-85
2023/06/02 11:49:59;;;;;;;7.38;4.78;;;;;;;;;;4880087;29;20226;-85
2023/06/02 11:53:12;;;;;;;6.28;4.55;;;;;;;;;;4879462;29;20210;-85
2023/06/02 11:56:16;;;;;;;5.78;5.13;;;;;;;;;;4880007;29;20186;-86
2023/06/02 11:59:20;;;;;;;6.43;4.68;;;;;;;;;;4879828;29;20570;-85
2023/06/02 12:02:25;;;;;;;8.30;4.70;;;;;;;;;;4879398;29;20187;-85
2023/06/02 12:05:32;;;;;;;6.13;5.10;;;;;;;;;;4878990;29;20202;-85
2023/06/02 12:08:36;;;;;;;9.40;4.75;;;;;;;;;;4879634;29;20226;-84
2023/06/02 12:11:40;;;;;;;5.00;4.15;;;;;;;;;;4879758;29;20182;-86
2023/06/02 12:14:44;;;;;;;8.95;4.60;;;;;;;;;;4879858;29;20187;-85
2023/06/02 12:17:48;;;;;;;7.20;4.22;;;;;;;;;;4890446;29;20212;-85
2023/06/02 12:20:53;;;;;;;6.50;4.32;;;;;;;;;;4880058;29;20186;-86
2023/06/02 12:23:58;;;;;;;6.65;4.43;;;;;;;;;;4879540;29;20187;-86
2023/06/02 12:27:03;;;;;;;9.35;5.03;;;;;;;;;;4879453;29;20182;-85
2023/06/02 12:30:08;;;;;;;8.65;4.60;;;;;;;;;;4890024;29;20693;-86
2023/06/02 12:33:12;;;;;;;6.95;4.18;;;;;;;;;;4879221;29;20674;-86
2023/06/02 12:36:16;;;;;;;9.07;4.85;;;;;;;;;;4880495;29;20182;-86
2023/06/02 12:39:21;;;;;;;6.38;4.38;;;;;;;;;;4883872;29;20702;-86
2023/06/02 12:42:25;;;;;;;7.85;4.68;;;;;;;;;;4872408;29;20175;-85
2023/06/02 12:45:32;;;;;;;6.47;4.10;;;;;;;;;;4882948;29;20190;-86
2023/06/02 12:48:40;;;;;;;4.72;3.63;;;;;;;;;;4872481;29;20215;-85
2023/06/02 12:51:48;;;;;;;8.48;3.83;;;;;;;;;;4882775;29;20182;-85
2023/06/02 12:54:52;;;;;;;6.35;3.95;;;;;;;;;;4872163;29;20186;-86
2023/06/02 12:57:56;;;;;;;8.60;3.50;;;;;;;;;;4882834;29;20183;-85
2023/06/02 13:01:00;;;;;;;5.85;3.85;;;;;;;;;;4872135;29;20183;-86
2023/06/02 13:04:05;;;;;;;3.90;3.15;;;;;;;;;;4871813;29;20519;-80
2023/06/02 13:07:10;;;;;;;8.00;3.17;;;;;;;;;;4882906;29;20190;-79
2023/06/02 13:10:14;;;;;;;5.40;3.60;;;;;;;;;;4882035;29;20222;-80
2023/06/02 13:13:18;;;;;;;5.20;3.50;;;;;;;;;;4882031;29;20218;-79
2023/06/02 13:16:22;;;;;;;5.85;3.60;;;;;;;;;;4882737;29;20618;-79
2023/06/02 13:19:26;;;;;;;8.43;3.30;;;;;;;;;;4871868;29;20566;-80
2023/06/02 13:22:31;;;;;;;8.48;3.70;;;;;;;;;;4893577;29;20190;-80
2023/06/02 13:25:35;;;;;;;19.45;4.60;;;;;;;;;;4882903;29;20525;-80
2023/06/02 13:28:39;;;;;;;8.90;3.60;;;;;;;;;;4882462;29;20223;-79
2023/06/02 13:31:43;;;;;;;6.88;3.53;;;;;;;;;;4893416;29;20204;-79
2023/06/02 13:34:56;;;;;;;8.43;3.67;;;;;;;;;;4882231;29;20179;-80
2023/06/02 13:38:00;;;;;;;5.20;3.70;;;;;;;;;;4882038;29;20191;-79
2023/06/02 13:41:04;;;;;;;6.78;3.80;;;;;;;;;;4882647;29;20186;-80
2023/06/02 13:44:11;;;;;;;5.28;3.60;;;;;;;;;;4881669;29;20187;-79
2023/06/02 13:47:15;;;;;;;6.82;3.92;;;;;;;;;;4894086;29;20198;-86
2023/06/02 13:50:21;;;;;;;6.10;4.00;;;;;;;;;;4900108;29;20229;-85
2023/06/02 13:53:28;;;;;;;4.13;3.33;;;;;;;;;;4900553;29;20202;-87
2023/06/02 13:56:34;;;;;;;5.93;4.07;;;;;;;;;;4890562;29;20189;-86
2023/06/02 14:00:07;;;;;;;6.50;3.90;;;;;;;;;;4901509;29;20697;-86
2023/06/02 14:03:46;;;;;;;6.57;4.10;;;;;;;;;;4901314;29;20183;-86
2023/06/02 14:06:55;;;;;;;6.32;4.32;;;;;;;;;;4901158;29;20526;-86
2023/06/02 14:10:05;;;;;;;13.65;4.50;;;;;;;;;;4890165;29;20221;-86
2023/06/02 14:13:09;;;;;;;6.47;3.80;;;;;;;;;;4889370;29;20213;-86
2023/06/02 14:16:47;;;;;;;4.65;3.35;;;;;;;;;;4901984;29;20182;-86
2023/06/02 14:20:20;;;;;;;5.47;4.07;;;;;;;;;;4901290;29;20209;-86
2023/06/02 14:23:25;;;;;;;7.43;3.88;;;;;;;;;;4901499;29;20182;-86
2023/06/02 14:26:29;;;;;;;9.10;4.18;;;;;;;;;;4901230;29;20637;-86
2023/06/02 14:29:33;;;;;;;6.20;4.03;;;;;;;;;;4901246;29;20233;-86
2023/06/02 14:32:37;;;;;;;7.00;4.57;;;;;;;;;;4900479;29;20182;-86
2023/06/02 14:35:42;;;;;;;12.90;4.38;;;;;;;;;;4899578;29;20178;-86
2023/06/02 14:38:46;;;;;;;6.95;4.20;;;;;;;;;;4910157;29;20225;-86
2023/06/02 14:41:50;;;;;;;19.25;4.95;;;;;;;;;;4900117;29;20185;-86
2023/06/02 14:44:54;;;;;;;6.55;3.72;;;;;;;;;;4899914;29;20186;-86
2023/06/02 14:47:59;;;;;;;4.43;3.83;;;;;;;;;;4910951;29;20190;-87
2023/06/02 14:51:05;;;;;;;6.82;4.18;;;;;;;;;;4912121;29;20186;-86
2023/06/02 14:54:09;;;;;;;6.50;3.90;;;;;;;;;;4878766;29;20214;-86
2023/06/02 14:57:13;;;;;;;5.88;4.00;;;;;;;;;;4911518;29;20182;-86
2023/06/02 15:00:18;;;;;;;8.52;4.30;;;;;;;;;;4900022;29;20217;-86
2023/06/02 15:03:22;;;;;;;85.18;8.55;;;;;;;;;;4901012;29;20202;-86
2023/06/02 15:06:44;;;;;;;6.68;3.33;;;;;;;;;;4908779;29;20190;-86
2023/06/02 15:09:49;;;;;;;4.82;3.42;;;;;;;;;;4910901;29;20221;-86
2023/06/02 15:12:53;;;;;;;5.03;4.05;;;;;;;;;;4899378;29;20186;-86
2023/06/02 15:15:57;;;;;;;6.13;3.70;;;;;;;;;;4900462;29;20665;-86
2023/06/02 15:19:02;;;;;;;4.30;3.65;;;;;;;;;;4911066;29;20222;-86
2023/06/02 15:22:06;;;;;;;5.80;3.50;;;;;;;;;;4899494;29;20189;-86
2023/06/02 15:25:11;;;;;;;5.30;3.90;;;;;;;;;;4911264;29;20178;-86
2023/06/02 15:28:15;;;;;;;4.68;3.45;;;;;;;;;;4910597;29;20186;-86
2023/06/02 15:31:19;;;;;;;5.18;3.65;;;;;;;;;;4910998;29;20182;-86
2023/06/02 15:34:24;;;;;;;8.40;3.90;;;;;;;;;;4911145;29;20673;-86
2023/06/02 15:37:28;;;;;;;4.40;3.63;;;;;;;;;;4900759;29;20657;-82
2023/06/02 15:40:32;;;;;;;5.28;3.70;;;;;;;;;;4911502;29;20220;-81
2023/06/02 15:43:38;;;;;;;13.70;4.55;;;;;;;;;;4899486;29;20182;-81
2023/06/02 15:46:42;;;;;;;4.75;3.42;;;;;;;;;;4911073;29;20655;-81
2023/06/02 15:49:46;;;;;;;4.90;3.75;;;;;;;;;;4910886;29;20220;-81
2023/06/02 15:52:50;;;;;;;4.55;3.22;;;;;;;;;;4889194;29;20522;-81
2023/06/02 15:55:55;;;;;;;7.10;3.78;;;;;;;;;;4899789;29;20667;-81
2023/06/02 15:58:59;;;;;;;5.82;3.88;;;;;;;;;;4899989;29;20224;-81
2023/06/02 16:02:03;;;;;;;11.43;4.07;;;;;;;;;;4900517;29;20185;-81
2023/06/02 16:05:07;;;;;;;8.35;3.75;;;;;;;;;;4900836;29;20192;-78
2023/06/02 16:08:11;;;;;;;8.70;3.80;;;;;;;;;;4900629;29;20521;-78
2023/06/02 16:11:15;;;;;;;4.00;3.60;;;;;;;;;;4902771;29;20190;-78
2023/06/02 16:14:19;;;;;;;6.25;3.75;;;;;;;;;;4915903;29;20215;-79
2023/06/02 16:17:23;;;;;;;3.47;3.15;;;;;;;;;;4894133;29;20523;-78
2023/06/02 16:20:27;;;;;;;7.40;4.15;;;;;;;;;;4915128;29;20694;-78
2023/06/02 16:23:31;;;;;;;4.78;3.58;;;;;;;;;;4914597;29;20177;-78
2023/06/02 16:26:35;;;;;;;8.38;3.70;;;;;;;;;;4914783;29;20177;-78
2023/06/02 16:29:40;;;;;;;6.43;3.58;;;;;;;;;;4903806;29;20578;-81
2023/06/02 16:32:44;;;;;;;5.63;4.07;;;;;;;;;;4903470;29;20194;-82
2023/06/02 16:35:48;;;;;;;5.18;4.18;;;;;;;;;;4903765;29;20174;-84
2023/06/02 16:38:53;;;;;;;5.73;3.77;;;;;;;;;;4914579;29;20574;-80
2023/06/02 16:41:57;;;;;;;5.18;3.63;;;;;;;;;;4903554;29;20189;-80
2023/06/02 16:45:02;;;;;;;7.10;4.07;;;;;;;;;;4913656;29;20197;-80
2023/06/02 16:48:07;;;;;;;7.07;3.77;;;;;;;;;;4902363;29;20203;-80
2023/06/02 16:51:12;;;;;;;6.77;4.00;;;;;;;;;;4913342;29;20183;-79
2023/06/02 16:54:16;;;;;;;6.63;4.07;;;;;;;;;;4891143;29;20215;-80
2023/06/02 16:57:20;;;;;;;5.23;3.30;;;;;;;;;;4913131;29;20206;-80
2023/06/02 17:00:26;;;;;;;4.47;3.30;;;;;;;;;;4902440;29;20221;-80
2023/06/02 17:03:30;;;;;;;6.27;4.17;;;;;;;;;;4902346;29;20183;-80
2023/06/02 17:06:35;;;;;;;5.70;3.53;;;;;;;;;;4902650;29;20201;-80
2023/06/02 17:09:39;;;;;;;19.77;4.33;;;;;;;;;;4902465;29;20221;-80
2023/06/02 17:12:44;;;;;;;6.17;3.13;;;;;;;;;;4912946;29;20202;-80
2023/06/02 17:15:48;;;;;;;5.17;3.70;;;;;;;;;;4901967;29;20207;-80
2023/06/02 17:18:52;;;;;;;4.30;3.57;;;;;;;;;;4912688;29;20222;-82
2023/06/02 17:21:56;;;;;;;39.67;4.93;;;;;;;;;;4902064;29;20188;-83
2023/06/02 17:25:00;;;;;;;7.20;3.93;;;;;;;;;;4902063;29;20189;-82
2023/06/02 17:28:04;;;;;;;10.17;4.07;;;;;;;;;;4913799;29;20191;-80
2023/06/02 17:31:09;;;;;;;6.13;3.27;;;;;;;;;;4903709;29;20183;-80
2023/06/02 17:34:13;;;;;;;5.63;3.33;;;;;;;;;;4913814;29;20224;-80
2023/06/02 17:37:17;;;;;;;6.57;3.63;;;;;;;;;;4913467;29;20201;-80
2023/06/02 17:40:22;;;;;;;7.07;3.70;;;;;;;;;;4902955;29;20231;-80
2023/06/02 17:43:29;;;;;;;7.33;3.37;;;;;;;;;;4901832;29;20191;-82
2023/06/02 17:46:33;;;;;;;4.23;3.10;;;;;;;;;;4902035;29;20174;-82
2023/06/02 17:49:37;;;;;;;9.43;3.93;;;;;;;;;;4890884;29;20219;-82
2023/06/02 17:52:42;;;;;;;5.93;3.10;;;;;;;;;;4902077;29;20537;-90
2023/06/02 17:55:46;;;;;;;4.53;3.37;;;;;;;;;;4910312;29;20215;-88
2023/06/02 17:58:51;;;;;;;5.20;3.93;;;;;;;;;;4899299;29;20221;-89
2023/06/02 18:01:55;;;;;;;4.60;3.40;;;;;;;;;;4888904;29;20178;-88
2023/06/02 18:05:00;;;;;;;7.20;3.57;;;;;;;;;;4899449;29;20202;-89
2023/06/02 18:24:09;;;;;;;5.33;3.47;;;;;;;;;;4916264;29;20178;-86
2023/06/02 18:29:08;;;;;;;7.97;3.80;;;;;;;;;;4908366;29;20174;-88
2023/06/02 18:37:35;;;;;;;7.60;3.90;;;;;;;;;;4900518;29;20205;-88
2023/06/02 18:41:29;;;;;;;7.40;3.90;;;;;;;;;;4907167;29;20193;-88
2023/06/02 18:44:33;;;;;;;4.77;4.17;;;;;;;;;;4888389;29;20531;-89
2023/06/02 18:47:37;;;;;;;7.13;3.80;;;;;;;;;;4888287;29;20578;-88
2023/06/02 18:50:41;;;;;;;5.50;3.97;;;;;;;;;;4894916;29;20189;-86
2023/06/02 18:53:47;;;;;;;9.07;4.20;;;;;;;;;;4890308;29;20194;-88
2023/06/02 18:56:51;;;;;;;7.13;4.17;;;;;;;;;;4900776;29;20634;-88
2023/06/02 18:59:55;;;;;;;8.43;4.20;;;;;;;;;;4891662;29;20236;-87
2023/06/02 19:02:59;;;;;;;6.67;4.03;;;;;;;;;;4889421;29;20181;-88
2023/06/02 19:06:03;;;;;;;7.43;3.97;;;;;;;;;;4900536;29;20189;-88
2023/06/02 19:09:08;;;;;;;8.67;3.90;;;;;;;;;;4900369;29;20221;-88
2023/06/02 19:12:12;;;;;;;11.47;4.60;;;;;;;;;;4888683;29;20182;-88
2023/06/02 19:15:16;;;;;;;8.70;4.57;;;;;;;;;;4889099;29;20213;-88
2023/06/02 19:18:20;;;;;;;8.10;4.17;;;;;;;;;;4889741;29;20189;-88
2023/06/02 19:21:27;;;;;;;10.03;4.17;;;;;;;;;;4889140;29;20185;-88
2023/06/02 19:24:35;;;;;;;183.23;15.77;;;;;;;;;;4888721;29;20177;-88
2023/06/02 19:27:40;;;;;;;16.20;6.20;;;;;;;;;;4910583;29;20258;-88
2023/06/02 19:30:45;;;;;;;12.60;5.83;;;;;;;;;;4879369;29;20181;-88
2023/06/02 19:33:49;;;;;;;15.77;5.50;;;;;;;;;;4890083;29;20546;-88
2023/06/02 19:36:53;;;;;;;8.10;5.20;;;;;;;;;;4889724;29;20181;-88
2023/06/02 19:39:58;;;;;;;6.67;4.67;;;;;;;;;;4889130;29;20562;-88
2023/06/02 19:43:03;;;;;;;7.00;4.43;;;;;;;;;;4899743;29;20185;-88
2023/06/02 19:46:18;;;;;;;9.90;5.17;;;;;;;;;;4902537;29;20182;-88
2023/06/02 19:49:31;;;;;;;10.90;4.80;;;;;;;;;;4894471;29;20569;-88
2023/06/02 19:52:39;;;;;;;6.93;4.53;;;;;;;;;;4915967;29;20201;-89
2023/06/02 19:55:43;;;;;;;9.10;4.60;;;;;;;;;;4915494;29;20213;-88
2023/06/02 19:58:48;;;;;;;9.73;4.93;;;;;;;;;;4893341;29;20221;-88
2023/06/02 20:01:52;;;;;;;9.17;4.97;;;;;;;;;;4915441;29;20185;-88
2023/06/02 20:04:56;;;;;;;13.83;4.70;;;;;;;;;;4893375;29;20189;-88
2023/06/02 20:08:00;;;;;;;10.40;5.00;;;;;;;;;;4893120;29;20197;-88
2023/06/02 20:11:05;;;;;;;8.33;4.47;;;;;;;;;;4893874;29;20185;-88
2023/06/02 20:14:09;;;;;;;9.40;5.00;;;;;;;;;;4894417;29;20185;-88
2023/06/02 20:17:13;;;;;;;10.53;5.17;;;;;;;;;;4915474;29;20190;-88
2023/06/02 20:20:20;;;;;;;9.60;5.03;;;;;;;;;;4882173;29;20229;-88
2023/06/02 20:23:25;;;;;;;7.43;4.30;;;;;;;;;;4893884;29;20181;-88
2023/06/02 20:26:29;;;;;;;9.03;4.80;;;;;;;;;;4903365;29;20193;-88
2023/06/02 20:29:33;;;;;;;8.07;4.30;;;;;;;;;;4892948;29;20229;-86
2023/06/02 20:32:37;;;;;;;7.90;4.70;;;;;;;;;;4902850;29;20189;-87
2023/06/02 20:35:41;;;;;;;8.83;4.50;;;;;;;;;;4890683;29;20229;-87
2023/06/02 20:38:47;;;;;;;9.17;4.90;;;;;;;;;;4901215;29;20236;-87
2023/06/02 20:41:55;;;;;;;6.20;4.30;;;;;;;;;;4890562;29;20189;-87
2023/06/02 20:44:59;;;;;;;12.00;4.77;;;;;;;;;;4890690;29;20185;-87
2023/06/02 20:48:04;;;;;;;7.53;4.50;;;;;;;;;;4890314;29;20209;-87
2023/06/02 20:51:09;;;;;;;11.17;4.73;;;;;;;;;;4891195;29;20194;-87
2023/06/02 20:54:16;;;;;;;6.47;4.03;;;;;;;;;;4890313;29;20190;-87
2023/06/02 20:57:20;;;;;;;6.63;4.60;;;;;;;;;;4900401;29;20665;-87
2023/06/02 21:00:25;;;;;;;9.97;4.07;;;;;;;;;;4900594;29;20221;-87
2023/06/02 21:03:30;;;;;;;8.67;4.80;;;;;;;;;;4880215;29;20186;-88
2023/06/02 21:06:34;;;;;;;10.37;4.40;;;;;;;;;;4890379;29;20626;-88
2023/06/02 21:09:38;;;;;;;9.53;4.70;;;;;;;;;;4900740;29;20225;-87
2023/06/02 21:12:42;;;;;;;9.20;4.43;;;;;;;;;;4911045;29;20201;-87
2023/06/02 21:15:47;;;;;;;8.03;4.43;;;;;;;;;;4900356;29;20209;-88
2023/06/02 21:18:51;;;;;;;8.10;4.63;;;;;;;;;;4900192;29;20217;-87
2023/06/02 21:21:55;;;;;;;8.63;4.63;;;;;;;;;;4911102;29;20186;-87
2023/06/02 21:25:00;;;;;;;8.23;4.33;;;;;;;;;;4912023;29;20181;-88
2023/06/02 21:28:04;;;;;;;8.00;3.97;;;;;;;;;;4900163;29;20181;-87
2023/06/02 21:31:09;;;;;;;8.07;4.43;;;;;;;;;;4899936;29;20201;-88
2023/06/02 21:34:13;;;;;;;8.43;3.97;;;;;;;;;;4902040;29;20178;-88
2023/06/02 21:37:18;;;;;;;8.43;3.93;;;;;;;;;;4899920;29;20178;-88
2023/06/02 21:40:22;;;;;;;6.77;4.03;;;;;;;;;;4899711;29;20220;-88
2023/06/02 21:43:26;;;;;;;9.30;4.30;;;;;;;;;;4901480;29;20197;-88
2023/06/02 21:46:30;;;;;;;6.50;3.90;;;;;;;;;;4900101;29;20181;-87
2023/06/02 21:49:34;;;;;;;7.10;3.40;;;;;;;;;;4899562;29;20685;-88
2023/06/02 21:52:39;;;;;;;10.13;4.30;;;;;;;;;;4910441;29;20190;-88
2023/06/02 21:55:43;;;;;;;9.87;3.87;;;;;;;;;;4889042;29;20252;-87
2023/06/02 21:58:47;;;;;;;8.13;3.30;;;;;;;;;;4899367;29;20216;-88
2023/06/02 22:01:51;;;;;;;8.13;3.57;;;;;;;;;;4910114;29;20201;-88
2023/06/02 22:04:55;;;;;;;11.03;3.77;;;;;;;;;;4899499;29;20669;-87
2023/06/02 22:07:59;;;;;;;5.87;3.60;;;;;;;;;;4899671;29;20665;-87
2023/06/02 22:11:03;;;;;;;39.87;5.57;;;;;;;;;;4910656;29;20185;-87
2023/06/02 22:14:07;;;;;;;9.57;3.50;;;;;;;;;;4889092;29;20181;-87
2023/06/02 22:17:11;;;;;;;6.57;3.70;;;;;;;;;;4899750;29;20213;-87
2023/06/02 22:20:16;;;;;;;9.47;3.40;;;;;;;;;;4909781;29;20221;-87
2023/06/02 22:23:20;;;;;;;6.37;3.10;;;;;;;;;;4888595;29;20185;-87
2023/06/02 22:26:24;;;;;;;5.73;3.10;;;;;;;;;;4889288;29;20511;-87
2023/06/02 22:29:28;;;;;;;9.13;3.30;;;;;;;;;;4899507;29;20562;-87
2023/06/02 22:32:34;;;;;;;8.20;3.20;;;;;;;;;;4888877;29;20642;-87
2023/06/02 22:35:39;;;;;;;9.07;3.27;;;;;;;;;;4888386;29;20559;-87
2023/06/02 22:38:43;;;;;;;6.87;3.40;;;;;;;;;;4898890;29;20224;-87
2023/06/02 22:41:49;;;;;;;10.33;3.17;;;;;;;;;;4888947;29;20185;-87
2023/06/02 22:44:57;;;;;;;4.70;2.93;;;;;;;;;;4888500;29;20182;-87
2023/06/02 22:48:02;;;;;;;10.00;3.43;;;;;;;;;;4909938;29;20182;-87